100LL.CA
Aviation Fuel Pricing for Canadians
Please upgrade your browser - Tested with IE9, FireFox, Chrome, Safari

Fuel Prices Airport Info Airport List METAR / TAF Kneeboard RSS

Reference Airport: Mackenzie, BC
N 55 17 58   W 123 08 00

CYZY Mackenzie, BC
WEATHER
METARCYZY 300901Z AUTO 14003KT 9SM -RA SCT008 OVC015 02/02 A2979 RMK SLP109
TAFTAF CYZY 300638Z 3007/3009 12005KT P6SM SCT012 OVC025 TEMPO 3007/3009 5SM -SHRA BR SCT006 OVC012 RMK FCST BASED ON AUTO OBS. NXT FCST WILL BE ISSUED AT 301445Z
REF N 55 17 58  W 123 08 00    2SW    19E (2012)
UTC-8(7)    Elev 2265    A5014 LO1 HI3 CAP
OPR District of Mackenzie 250-997-3761
Reg
PFB-1 C-2,3,4,5,6
FLT PLN NOTAM FILE CYXS
FIC Kamloops 866-WXBRIEF (Toll free within Canada) or 866-541-4101 (Toll free within Canada & USA)
ACCVancouver IFR 604-586-4590/4591 or 800-668-1333
WXMETAR AUTO H24 (see COMM) TAF 15-09Z, issue times: 15, 19, 01, 07Z. WxCam
SERVICES Call out chg may be levied for one or more svcs.
FUEL100LL, JA Trench Aviation 250-997-1304 1530-2330Z Mon-Fri O/T call out chg
PRICES100LL public: 1.720; current as of 2016-08-05.
OIL15W50
RWY DATARwy 17(167)/35(347) 5033x100 asphalt
RCROpr Ltd win maint
LIGHTING17-(TE ME) P1, 35- (TE ME) P1 ARCAL-123.5 type K
COMM
RCOPacific rdo 123.475 (FISE)126.7 (bcst)
MFtfc 123.5 5NM 5300 ASL (CAR 602.98)
AWOS127.7
NAV
Effective 0901Z 02 March 2017 to 0901Z 27 April 2017